sensor_id;sensor_type;location;lat;lon;timestamp;pressure;altitude;pressure_sealevel;temperature;humidity
36454;BME280;22478;51.740;-1.314;2022-12-07T00:00:35;101161.51;;;-2.66;100.00
36454;BME280;22478;51.740;-1.314;2022-12-07T00:03:03;101166.76;;;-4.88;100.00
36454;BME280;22478;51.740;-1.314;2022-12-07T00:05:30;101158.13;;;-1.99;100.00
36454;BME280;22478;51.740;-1.314;2022-12-07T00:07:57;101163.17;;;-3.59;100.00
36454;BME280;22478;51.740;-1.314;2022-12-07T00:10:24;101165.77;;;-3.90;100.00
36454;BME280;22478;51.740;-1.314;2022-12-07T00:12:51;101163.41;;;-3.24;100.00
36454;BME280;22478;51.740;-1.314;2022-12-07T00:15:18;101163.50;;;-3.50;100.00
36454;BME280;22478;51.740;-1.314;2022-12-07T00:17:46;101162.86;;;-2.45;100.00
36454;BME280;22478;51.740;-1.314;2022-12-07T00:20:13;101159.45;;;-2.84;100.00
36454;BME280;22478;51.740;-1.314;2022-12-07T00:22:40;101171.29;;;-5.93;100.00
36454;BME280;22478;51.740;-1.314;2022-12-07T00:25:07;101167.63;;;-5.54;100.00
36454;BME280;22478;51.740;-1.314;2022-12-07T00:27:35;101172.35;;;-5.94;100.00
36454;BME280;22478;51.740;-1.314;2022-12-07T00:30:03;101169.26;;;-5.87;100.00
36454;BME280;22478;51.740;-1.314;2022-12-07T00:32:30;101171.62;;;-5.61;100.00
36454;BME280;22478;51.740;-1.314;2022-12-07T00:34:57;101162.98;;;-4.25;100.00
36454;BME280;22478;51.740;-1.314;2022-12-07T00:37:24;101161.57;;;-4.41;100.00
36454;BME280;22478;51.740;-1.314;2022-12-07T00:39:51;101163.84;;;-4.90;100.00
36454;BME280;22478;51.740;-1.314;2022-12-07T00:42:19;101165.27;;;-3.83;100.00
36454;BME280;22478;51.740;-1.314;2022-12-07T00:44:46;101165.52;;;-4.49;100.00
36454;BME280;22478;51.740;-1.314;2022-12-07T00:47:12;101161.15;;;-2.91;100.00
36454;BME280;22478;51.740;-1.314;2022-12-07T00:49:40;101158.22;;;-2.66;100.00
36454;BME280;22478;51.740;-1.314;2022-12-07T00:52:07;101158.08;;;-3.30;100.00
36454;BME280;22478;51.740;-1.314;2022-12-07T00:54:34;101161.37;;;-4.24;100.00
36454;BME280;22478;51.740;-1.314;2022-12-07T00:57:01;101158.34;;;-5.09;100.00
36454;BME280;22478;51.740;-1.314;2022-12-07T00:59:28;101148.08;;;-2.10;100.00
36454;BME280;22478;51.740;-1.314;2022-12-07T01:01:55;101155.90;;;-3.84;100.00
36454;BME280;22478;51.740;-1.314;2022-12-07T01:04:22;101155.03;;;-4.40;100.00
36454;BME280;22478;51.740;-1.314;2022-12-07T01:06:50;101139.70;;;-0.75;100.00
36454;BME280;22478;51.740;-1.314;2022-12-07T01:09:17;101138.80;;;-1.37;100.00
36454;BME280;22478;51.740;-1.314;2022-12-07T01:11:44;101141.50;;;-3.47;100.00
36454;BME280;22478;51.740;-1.314;2022-12-07T01:14:11;101148.36;;;-6.37;100.00
36454;BME280;22478;51.740;-1.314;2022-12-07T01:16:38;101144.76;;;-6.21;100.00
36454;BME280;22478;51.740;-1.314;2022-12-07T01:19:05;101139.68;;;-3.80;100.00
36454;BME280;22478;51.740;-1.314;2022-12-07T01:21:34;101136.56;;;-3.06;100.00
36454;BME280;22478;51.740;-1.314;2022-12-07T01:24:04;101143.83;;;-4.27;100.00
36454;BME280;22478;51.740;-1.314;2022-12-07T01:26:31;101140.39;;;-3.94;100.00
36454;BME280;22478;51.740;-1.314;2022-12-07T01:28:58;101132.83;;;-3.46;100.00
36454;BME280;22478;51.740;-1.314;2022-12-07T01:31:26;101124.31;;;0.38;100.00
36454;BME280;22478;51.740;-1.314;2022-12-07T01:33:56;101124.43;;;-1.05;100.00
36454;BME280;22478;51.740;-1.314;2022-12-07T01:36:25;101120.72;;;-0.25;100.00
36454;BME280;22478;51.740;-1.314;2022-12-07T01:38:57;101120.74;;;-0.60;100.00
36454;BME280;22478;51.740;-1.314;2022-12-07T01:41:27;101117.38;;;-0.07;100.00
36454;BME280;22478;51.740;-1.314;2022-12-07T01:44:14;101131.75;;;-3.10;100.00
36454;BME280;22478;51.740;-1.314;2022-12-07T01:46:43;101131.06;;;-3.14;100.00
36454;BME280;22478;51.740;-1.314;2022-12-07T01:49:17;101139.21;;;-4.04;100.00
36454;BME280;22478;51.740;-1.314;2022-12-07T01:51:46;101137.85;;;-5.18;100.00
36454;BME280;22478;51.740;-1.314;2022-12-07T01:54:16;101143.48;;;-5.63;100.00
36454;BME280;22478;51.740;-1.314;2022-12-07T01:56:49;101142.29;;;-5.11;100.00
36454;BME280;22478;51.740;-1.314;2022-12-07T01:59:18;101148.86;;;-7.29;100.00
36454;BME280;22478;51.740;-1.314;2022-12-07T02:01:48;101145.79;;;-5.02;100.00
36454;BME280;22478;51.740;-1.314;2022-12-07T02:04:15;101146.70;;;-5.53;100.00
36454;BME280;22478;51.740;-1.314;2022-12-07T02:06:45;101147.85;;;-5.97;100.00
36454;BME280;22478;51.740;-1.314;2022-12-07T02:09:13;101141.09;;;-4.71;100.00
36454;BME280;22478;51.740;-1.314;2022-12-07T02:11:41;101138.92;;;-4.78;100.00
36454;BME280;22478;51.740;-1.314;2022-12-07T02:14:08;101140.60;;;-5.59;100.00
36454;BME280;22478;51.740;-1.314;2022-12-07T02:16:44;101136.87;;;-2.61;100.00
36454;BME280;22478;51.740;-1.314;2022-12-07T02:20:28;101135.57;;;-3.23;100.00
36454;BME280;22478;51.740;-1.314;2022-12-07T02:23:18;101143.70;;;-6.35;100.00
36454;BME280;22478;51.740;-1.314;2022-12-07T02:26:07;101137.96;;;-4.47;100.00
36454;BME280;22478;51.740;-1.314;2022-12-07T02:28:53;101130.22;;;-4.63;100.00
36454;BME280;22478;51.740;-1.314;2022-12-07T02:31:28;101133.67;;;-5.20;100.00
36454;BME280;22478;51.740;-1.314;2022-12-07T02:34:04;101128.46;;;-4.82;100.00
36454;BME280;22478;51.740;-1.314;2022-12-07T02:36:39;101133.71;;;-3.22;100.00
36454;BME280;22478;51.740;-1.314;2022-12-07T02:39:14;101121.82;;;-0.79;100.00
36454;BME280;22478;51.740;-1.314;2022-12-07T02:41:45;101128.58;;;-3.87;100.00
36454;BME280;22478;51.740;-1.314;2022-12-07T02:44:18;101128.60;;;-3.68;100.00
36454;BME280;22478;51.740;-1.314;2022-12-07T02:46:49;101122.53;;;-1.76;100.00
36454;BME280;22478;51.740;-1.314;2022-12-07T02:49:18;101118.43;;;0.42;100.00
36454;BME280;22478;51.740;-1.314;2022-12-07T02:51:48;101116.86;;;0.72;100.00
36454;BME280;22478;51.740;-1.314;2022-12-07T02:54:17;101116.60;;;0.58;100.00
36454;BME280;22478;51.740;-1.314;2022-12-07T02:56:48;101112.62;;;-0.12;100.00
36454;BME280;22478;51.740;-1.314;2022-12-07T02:59:25;101115.25;;;0.83;100.00
36454;BME280;22478;51.740;-1.314;2022-12-07T03:02:05;101103.31;;;-1.18;100.00
36454;BME280;22478;51.740;-1.314;2022-12-07T03:04:45;101112.64;;;-3.58;100.00
36454;BME280;22478;51.740;-1.314;2022-12-07T03:07:29;101109.43;;;-2.11;100.00
36454;BME280;22478;51.740;-1.314;2022-12-07T03:10:03;101102.17;;;-0.49;100.00
36454;BME280;22478;51.740;-1.314;2022-12-07T03:12:39;101099.49;;;-1.33;100.00
36454;BME280;22478;51.740;-1.314;2022-12-07T03:15:14;101093.18;;;-0.58;100.00
36454;BME280;22478;51.740;-1.314;2022-12-07T03:17:46;101096.05;;;-1.35;100.00
36454;BME280;22478;51.740;-1.314;2022-12-07T03:20:18;101103.97;;;-3.69;100.00
36454;BME280;22478;51.740;-1.314;2022-12-07T03:22:49;101097.69;;;-2.88;100.00
36454;BME280;22478;51.740;-1.314;2022-12-07T03:25:18;101105.30;;;-1.98;100.00
36454;BME280;22478;51.740;-1.314;2022-12-07T03:27:49;101106.57;;;-4.29;100.00
36454;BME280;22478;51.740;-1.314;2022-12-07T03:30:19;101115.84;;;-6.92;100.00
36454;BME280;22478;51.740;-1.314;2022-12-07T03:32:50;101109.15;;;-3.66;100.00
36454;BME280;22478;51.740;-1.314;2022-12-07T03:35:23;101097.07;;;-2.35;100.00
36454;BME280;22478;51.740;-1.314;2022-12-07T03:37:55;101096.05;;;-0.97;100.00
36454;BME280;22478;51.740;-1.314;2022-12-07T03:40:28;101093.87;;;0.10;100.00
36454;BME280;22478;51.740;-1.314;2022-12-07T03:42:59;101097.43;;;-1.98;100.00
36454;BME280;22478;51.740;-1.314;2022-12-07T03:45:33;101094.51;;;-1.57;100.00
36454;BME280;22478;51.740;-1.314;2022-12-07T03:48:07;101093.18;;;-1.17;100.00
36454;BME280;22478;51.740;-1.314;2022-12-07T03:50:41;101098.82;;;-0.14;100.00
36454;BME280;22478;51.740;-1.314;2022-12-07T03:53:14;101088.05;;;0.17;100.00
36454;BME280;22478;51.740;-1.314;2022-12-07T03:55:44;101093.96;;;-0.90;100.00
36454;BME280;22478;51.740;-1.314;2022-12-07T03:58:14;101092.99;;;-0.93;100.00
36454;BME280;22478;51.740;-1.314;2022-12-07T04:00:43;101090.16;;;-1.71;100.00
36454;BME280;22478;51.740;-1.314;2022-12-07T04:03:10;101088.03;;;-0.33;100.00
36454;BME280;22478;51.740;-1.314;2022-12-07T04:05:38;101088.81;;;0.54;100.00
36454;BME280;22478;51.740;-1.314;2022-12-07T04:08:05;101084.42;;;0.72;100.00
36454;BME280;22478;51.740;-1.314;2022-12-07T04:10:32;101083.52;;;-0.29;100.00
36454;BME280;22478;51.740;-1.314;2022-12-07T04:12:59;101077.67;;;0.30;100.00
36454;BME280;22478;51.740;-1.314;2022-12-07T04:15:27;101077.38;;;0.06;100.00
36454;BME280;22478;51.740;-1.314;2022-12-07T04:17:54;101069.42;;;0.30;100.00
36454;BME280;22478;51.740;-1.314;2022-12-07T04:20:21;101068.25;;;1.02;100.00
36454;BME280;22478;51.740;-1.314;2022-12-07T04:22:48;101082.74;;;-3.75;100.00
36454;BME280;22478;51.740;-1.314;2022-12-07T04:25:15;101072.95;;;-3.24;100.00
36454;BME280;22478;51.740;-1.314;2022-12-07T04:27:42;101081.90;;;-4.23;100.00
36454;BME280;22478;51.740;-1.314;2022-12-07T04:30:10;101072.01;;;-2.40;100.00
36454;BME280;22478;51.740;-1.314;2022-12-07T04:32:38;101070.74;;;-2.16;100.00
36454;BME280;22478;51.740;-1.314;2022-12-07T04:35:05;101085.00;;;-5.65;100.00
36454;BME280;22478;51.740;-1.314;2022-12-07T04:37:32;101074.04;;;-1.68;100.00
36454;BME280;22478;51.740;-1.314;2022-12-07T04:40:00;101069.61;;;-0.79;100.00
36454;BME280;22478;51.740;-1.314;2022-12-07T04:42:27;101065.68;;;-0.56;100.00
36454;BME280;22478;51.740;-1.314;2022-12-07T04:44:54;101062.51;;;0.27;100.00
36454;BME280;22478;51.740;-1.314;2022-12-07T04:47:21;101063.45;;;0.34;100.00
36454;BME280;22478;51.740;-1.314;2022-12-07T04:49:48;101062.08;;;-0.13;100.00
36454;BME280;22478;51.740;-1.314;2022-12-07T04:52:15;101061.75;;;0.08;100.00
36454;BME280;22478;51.740;-1.314;2022-12-07T04:54:42;101063.72;;;-0.04;100.00
36454;BME280;22478;51.740;-1.314;2022-12-07T04:57:09;101062.42;;;-0.46;100.00
36454;BME280;22478;51.740;-1.314;2022-12-07T04:59:36;101059.11;;;0.52;100.00
36454;BME280;22478;51.740;-1.314;2022-12-07T05:02:03;101064.67;;;-0.06;100.00
36454;BME280;22478;51.740;-1.314;2022-12-07T05:04:30;101066.53;;;0.84;100.00
36454;BME280;22478;51.740;-1.314;2022-12-07T05:06:57;101068.39;;;0.66;100.00
36454;BME280;22478;51.740;-1.314;2022-12-07T05:09:24;101062.87;;;0.96;100.00
36454;BME280;22478;51.740;-1.314;2022-12-07T05:11:51;101054.81;;;0.81;100.00
36454;BME280;22478;51.740;-1.314;2022-12-07T05:14:19;101061.34;;;-0.49;100.00
36454;BME280;22478;51.740;-1.314;2022-12-07T05:16:48;101063.61;;;-0.89;100.00
36454;BME280;22478;51.740;-1.314;2022-12-07T05:19:16;101053.49;;;0.33;100.00
36454;BME280;22478;51.740;-1.314;2022-12-07T05:21:43;101057.53;;;-0.55;100.00
36454;BME280;22478;51.740;-1.314;2022-12-07T05:24:11;101054.28;;;0.36;100.00
36454;BME280;22478;51.740;-1.314;2022-12-07T05:26:39;101048.42;;;0.31;100.00
36454;BME280;22478;51.740;-1.314;2022-12-07T05:29:06;101047.75;;;0.04;100.00
36454;BME280;22478;51.740;-1.314;2022-12-07T05:31:33;101055.26;;;0.04;100.00
36454;BME280;22478;51.740;-1.314;2022-12-07T05:34:01;101044.82;;;0.27;100.00
36454;BME280;22478;51.740;-1.314;2022-12-07T05:36:28;101047.05;;;-0.70;100.00
36454;BME280;22478;51.740;-1.314;2022-12-07T05:38:55;101051.23;;;-0.39;100.00
36454;BME280;22478;51.740;-1.314;2022-12-07T05:41:22;101043.83;;;-0.16;100.00
36454;BME280;22478;51.740;-1.314;2022-12-07T05:43:49;101043.74;;;-0.60;100.00
36454;BME280;22478;51.740;-1.314;2022-12-07T05:46:16;101060.67;;;-5.21;100.00
36454;BME280;22478;51.740;-1.314;2022-12-07T05:48:43;101054.00;;;-2.07;100.00
36454;BME280;22478;51.740;-1.314;2022-12-07T05:51:10;101047.57;;;-1.24;100.00
36454;BME280;22478;51.740;-1.314;2022-12-07T05:53:38;101044.21;;;-0.56;100.00
36454;BME280;22478;51.740;-1.314;2022-12-07T05:56:05;101052.84;;;-2.19;100.00
36454;BME280;22478;51.740;-1.314;2022-12-07T05:58:33;101056.37;;;-4.41;100.00
36454;BME280;22478;51.740;-1.314;2022-12-07T06:01:00;101043.81;;;-2.12;100.00
36454;BME280;22478;51.740;-1.314;2022-12-07T06:03:27;101052.24;;;-1.99;100.00
36454;BME280;22478;51.740;-1.314;2022-12-07T06:05:54;101053.98;;;-2.07;100.00
36454;BME280;22478;51.740;-1.314;2022-12-07T06:08:22;101042.10;;;0.65;100.00
36454;BME280;22478;51.740;-1.314;2022-12-07T06:10:49;101039.66;;;-0.76;100.00
36454;BME280;22478;51.740;-1.314;2022-12-07T06:13:16;101047.01;;;-0.13;100.00
36454;BME280;22478;51.740;-1.314;2022-12-07T06:15:43;101044.25;;;-0.13;100.00
36454;BME280;22478;51.740;-1.314;2022-12-07T06:18:10;101045.38;;;1.22;100.00
36454;BME280;22478;51.740;-1.314;2022-12-07T06:20:38;101051.93;;;-0.23;100.00
36454;BME280;22478;51.740;-1.314;2022-12-07T06:23:05;101052.66;;;-1.03;100.00
36454;BME280;22478;51.740;-1.314;2022-12-07T06:25:32;101050.84;;;-0.01;100.00
36454;BME280;22478;51.740;-1.314;2022-12-07T06:27:59;101050.34;;;-0.47;100.00
36454;BME280;22478;51.740;-1.314;2022-12-07T06:30:26;101054.83;;;0.08;100.00
36454;BME280;22478;51.740;-1.314;2022-12-07T06:32:53;101050.26;;;0.62;100.00
36454;BME280;22478;51.740;-1.314;2022-12-07T06:35:20;101048.10;;;0.28;100.00
36454;BME280;22478;51.740;-1.314;2022-12-07T06:37:47;101052.87;;;-0.14;100.00
36454;BME280;22478;51.740;-1.314;2022-12-07T06:40:15;101049.32;;;0.37;100.00
36454;BME280;22478;51.740;-1.314;2022-12-07T06:42:42;101050.87;;;0.47;100.00
36454;BME280;22478;51.740;-1.314;2022-12-07T06:45:10;101050.74;;;0.34;100.00
36454;BME280;22478;51.740;-1.314;2022-12-07T06:47:37;101049.67;;;0.32;100.00
36454;BME280;22478;51.740;-1.314;2022-12-07T06:50:06;101047.94;;;0.62;100.00
36454;BME280;22478;51.740;-1.314;2022-12-07T06:52:33;101045.18;;;0.09;100.00
36454;BME280;22478;51.740;-1.314;2022-12-07T06:55:01;101048.64;;;0.31;100.00
36454;BME280;22478;51.740;-1.314;2022-12-07T06:57:27;101048.76;;;0.47;100.00
36454;BME280;22478;51.740;-1.314;2022-12-07T06:59:55;101045.08;;;0.28;100.00
36454;BME280;22478;51.740;-1.314;2022-12-07T07:02:22;101046.97;;;0.13;100.00
36454;BME280;22478;51.740;-1.314;2022-12-07T07:04:49;101044.91;;;0.02;100.00
36454;BME280;22478;51.740;-1.314;2022-12-07T07:07:16;101045.38;;;0.03;100.00
36454;BME280;22478;51.740;-1.314;2022-12-07T07:09:43;101043.75;;;0.44;100.00
36454;BME280;22478;51.740;-1.314;2022-12-07T07:12:10;101049.38;;;-0.59;100.00
36454;BME280;22478;51.740;-1.314;2022-12-07T07:14:37;101050.91;;;0.31;100.00
36454;BME280;22478;51.740;-1.314;2022-12-07T07:17:04;101050.77;;;0.06;100.00
36454;BME280;22478;51.740;-1.314;2022-12-07T07:19:31;101046.49;;;0.07;100.00
36454;BME280;22478;51.740;-1.314;2022-12-07T07:21:58;101046.59;;;0.12;100.00
36454;BME280;22478;51.740;-1.314;2022-12-07T07:24:25;101051.61;;;-0.37;100.00
36454;BME280;22478;51.740;-1.314;2022-12-07T07:26:52;101056.61;;;-4.46;100.00
36454;BME280;22478;51.740;-1.314;2022-12-07T07:29:19;101060.75;;;-3.19;100.00
36454;BME280;22478;51.740;-1.314;2022-12-07T07:31:47;101066.42;;;-2.78;100.00
36454;BME280;22478;51.740;-1.314;2022-12-07T07:34:14;101059.56;;;-0.67;100.00
36454;BME280;22478;51.740;-1.314;2022-12-07T07:36:40;101061.78;;;-1.30;100.00
36454;BME280;22478;51.740;-1.314;2022-12-07T07:39:09;101060.75;;;-0.85;100.00
36454;BME280;22478;51.740;-1.314;2022-12-07T07:41:36;101072.16;;;-4.21;100.00
36454;BME280;22478;51.740;-1.314;2022-12-07T07:44:03;101058.63;;;-1.37;100.00
36454;BME280;22478;51.740;-1.314;2022-12-07T07:46:31;101067.12;;;-3.77;100.00
36454;BME280;22478;51.740;-1.314;2022-12-07T07:48:58;101069.54;;;-3.50;100.00
36454;BME280;22478;51.740;-1.314;2022-12-07T07:51:25;101071.59;;;-3.42;100.00
36454;BME280;22478;51.740;-1.314;2022-12-07T07:53:52;101079.82;;;-3.93;100.00
36454;BME280;22478;51.740;-1.314;2022-12-07T07:56:20;101080.04;;;-3.69;100.00
36454;BME280;22478;51.740;-1.314;2022-12-07T07:58:47;101068.22;;;-2.41;100.00
36454;BME280;22478;51.740;-1.314;2022-12-07T08:01:14;101065.96;;;-1.48;100.00
36454;BME280;22478;51.740;-1.314;2022-12-07T08:03:41;101060.17;;;-0.11;100.00
36454;BME280;22478;51.740;-1.314;2022-12-07T08:06:08;101066.33;;;-1.18;100.00
36454;BME280;22478;51.740;-1.314;2022-12-07T08:08:35;101072.12;;;-2.28;100.00
36454;BME280;22478;51.740;-1.314;2022-12-07T08:11:05;101063.58;;;0.50;100.00
36454;BME280;22478;51.740;-1.314;2022-12-07T08:13:32;101065.02;;;-0.18;100.00
36454;BME280;22478;51.740;-1.314;2022-12-07T08:16:03;101062.65;;;-0.59;100.00
36454;BME280;22478;51.740;-1.314;2022-12-07T08:18:35;101067.21;;;-2.09;100.00
36454;BME280;22478;51.740;-1.314;2022-12-07T08:21:02;101079.88;;;-4.37;100.00
36454;BME280;22478;51.740;-1.314;2022-12-07T08:23:30;101081.01;;;-4.92;100.00
36454;BME280;22478;51.740;-1.314;2022-12-07T08:26:00;101088.54;;;-6.08;100.00
36454;BME280;22478;51.740;-1.314;2022-12-07T08:28:27;101079.53;;;-3.37;100.00
36454;BME280;22478;51.740;-1.314;2022-12-07T08:30:58;101073.26;;;-2.37;100.00
36454;BME280;22478;51.740;-1.314;2022-12-07T08:33:26;101068.86;;;-2.84;100.00
36454;BME280;22478;51.740;-1.314;2022-12-07T08:35:53;101074.61;;;-4.53;100.00
36454;BME280;22478;51.740;-1.314;2022-12-07T08:38:20;101074.37;;;-5.03;100.00
36454;BME280;22478;51.740;-1.314;2022-12-07T08:40:53;101075.49;;;-3.40;100.00
36454;BME280;22478;51.740;-1.314;2022-12-07T08:43:20;101079.50;;;-5.56;100.00
36454;BME280;22478;51.740;-1.314;2022-12-07T08:45:48;101076.44;;;-5.63;100.00
36454;BME280;22478;51.740;-1.314;2022-12-07T08:48:15;101080.48;;;-7.04;100.00
36454;BME280;22478;51.740;-1.314;2022-12-07T08:50:43;101071.64;;;-5.36;100.00
36454;BME280;22478;51.740;-1.314;2022-12-07T08:53:10;101074.49;;;-6.26;100.00
36454;BME280;22478;51.740;-1.314;2022-12-07T08:55:37;101075.99;;;-7.18;100.00
36454;BME280;22478;51.740;-1.314;2022-12-07T08:58:05;101070.36;;;-5.31;100.00
36454;BME280;22478;51.740;-1.314;2022-12-07T09:00:32;101079.73;;;-7.65;100.00
36454;BME280;22478;51.740;-1.314;2022-12-07T09:02:59;101083.26;;;-7.89;100.00
36454;BME280;22478;51.740;-1.314;2022-12-07T09:05:26;101092.29;;;-8.58;100.00
36454;BME280;22478;51.740;-1.314;2022-12-07T09:07:57;101084.61;;;-7.12;100.00
36454;BME280;22478;51.740;-1.314;2022-12-07T09:10:27;101076.01;;;-7.11;100.00
36454;BME280;22478;51.740;-1.314;2022-12-07T09:12:54;101072.73;;;-6.73;100.00
36454;BME280;22478;51.740;-1.314;2022-12-07T09:15:22;101066.92;;;-6.51;100.00
36454;BME280;22478;51.740;-1.314;2022-12-07T09:17:49;101061.76;;;-4.23;100.00
36454;BME280;22478;51.740;-1.314;2022-12-07T09:20:16;101066.25;;;-6.01;100.00
36454;BME280;22478;51.740;-1.314;2022-12-07T09:22:44;101068.70;;;-6.83;100.00
36454;BME280;22478;51.740;-1.314;2022-12-07T09:25:11;101071.22;;;-7.41;100.00
36454;BME280;22478;51.740;-1.314;2022-12-07T09:27:38;101063.18;;;-6.16;100.00
36454;BME280;22478;51.740;-1.314;2022-12-07T09:30:06;101057.52;;;-3.45;100.00
36454;BME280;22478;51.740;-1.314;2022-12-07T09:32:34;101044.17;;;-1.56;100.00
36454;BME280;22478;51.740;-1.314;2022-12-07T09:35:02;101047.00;;;-1.67;100.00
36454;BME280;22478;51.740;-1.314;2022-12-07T09:37:29;101042.44;;;-0.48;100.00
36454;BME280;22478;51.740;-1.314;2022-12-07T09:39:57;101046.98;;;-3.12;100.00
36454;BME280;22478;51.740;-1.314;2022-12-07T09:42:28;101052.15;;;-4.29;100.00
36454;BME280;22478;51.740;-1.314;2022-12-07T09:44:57;101042.37;;;-2.29;100.00
36454;BME280;22478;51.740;-1.314;2022-12-07T09:47:25;101047.81;;;-2.43;100.00
36454;BME280;22478;51.740;-1.314;2022-12-07T09:49:54;101049.90;;;-1.26;100.00
36454;BME280;22478;51.740;-1.314;2022-12-07T09:52:27;101057.95;;;-3.97;100.00
36454;BME280;22478;51.740;-1.314;2022-12-07T09:54:55;101068.06;;;-6.14;100.00
36454;BME280;22478;51.740;-1.314;2022-12-07T09:57:29;101063.68;;;-4.09;100.00
36454;BME280;22478;51.740;-1.314;2022-12-07T10:00:00;101074.95;;;-7.16;100.00
36454;BME280;22478;51.740;-1.314;2022-12-07T10:02:36;101068.86;;;-4.60;100.00
36454;BME280;22478;51.740;-1.314;2022-12-07T10:05:05;101062.34;;;-4.50;100.00
36454;BME280;22478;51.740;-1.314;2022-12-07T10:07:32;101062.32;;;-5.15;100.00
36454;BME280;22478;51.740;-1.314;2022-12-07T10:10:03;101058.33;;;-4.97;100.00
36454;BME280;22478;51.740;-1.314;2022-12-07T10:12:30;101048.73;;;-2.31;100.00
36454;BME280;22478;51.740;-1.314;2022-12-07T10:15:02;101043.46;;;-2.25;100.00
36454;BME280;22478;51.740;-1.314;2022-12-07T10:17:34;101051.86;;;-4.01;100.00
36454;BME280;22478;51.740;-1.314;2022-12-07T10:20:35;101054.37;;;-6.21;100.00
36454;BME280;22478;51.740;-1.314;2022-12-07T10:23:03;101058.79;;;-7.22;100.00
36454;BME280;22478;51.740;-1.314;2022-12-07T10:25:33;101050.29;;;-4.81;100.00
36454;BME280;22478;51.740;-1.314;2022-12-07T10:28:09;101053.75;;;-6.24;100.00
36454;BME280;22478;51.740;-1.314;2022-12-07T10:30:49;101060.17;;;-6.58;100.00
36454;BME280;22478;51.740;-1.314;2022-12-07T10:33:36;101051.93;;;-6.39;100.00
36454;BME280;22478;51.740;-1.314;2022-12-07T10:36:19;101044.90;;;-6.12;100.00
36454;BME280;22478;51.740;-1.314;2022-12-07T10:38:49;101045.11;;;-6.22;100.00
36454;BME280;22478;51.740;-1.314;2022-12-07T10:41:16;101038.84;;;-5.34;100.00
36454;BME280;22478;51.740;-1.314;2022-12-07T10:43:48;101037.54;;;-6.73;100.00
36454;BME280;22478;51.740;-1.314;2022-12-07T10:47:32;101033.88;;;-6.00;100.00
36454;BME280;22478;51.740;-1.314;2022-12-07T10:50:29;101027.51;;;-5.08;100.00
36454;BME280;22478;51.740;-1.314;2022-12-07T10:53:18;101025.85;;;-6.94;100.00
36454;BME280;22478;51.740;-1.314;2022-12-07T10:56:02;101013.93;;;-5.72;100.00
36454;BME280;22478;51.740;-1.314;2022-12-07T10:58:47;101016.96;;;-6.35;100.00
36454;BME280;22478;51.740;-1.314;2022-12-07T11:01:24;101009.17;;;-4.55;100.00
36454;BME280;22478;51.740;-1.314;2022-12-07T11:04:08;101009.58;;;-6.09;100.00
36454;BME280;22478;51.740;-1.314;2022-12-07T11:06:48;101005.00;;;-5.45;100.00
36454;BME280;22478;51.740;-1.314;2022-12-07T11:09:36;101004.37;;;-5.48;100.00
36454;BME280;22478;51.740;-1.314;2022-12-07T11:12:11;101003.25;;;-4.67;100.00
36454;BME280;22478;51.740;-1.314;2022-12-07T11:14:50;101003.41;;;-5.79;100.00
36454;BME280;22478;51.740;-1.314;2022-12-07T11:17:25;101004.99;;;-5.23;100.00
36454;BME280;22478;51.740;-1.314;2022-12-07T11:20:02;101003.98;;;-5.29;100.00
36454;BME280;22478;51.740;-1.314;2022-12-07T11:22:39;100999.66;;;-4.11;100.00
36454;BME280;22478;51.740;-1.314;2022-12-07T11:25:20;100988.05;;;-3.00;100.00
36454;BME280;22478;51.740;-1.314;2022-12-07T11:28:01;100985.00;;;-2.22;100.00
36454;BME280;22478;51.740;-1.314;2022-12-07T11:30:35;100979.54;;;-0.52;100.00
36454;BME280;22478;51.740;-1.314;2022-12-07T11:33:15;100970.67;;;0.72;100.00
36454;BME280;22478;51.740;-1.314;2022-12-07T11:35:52;100957.88;;;2.00;100.00
36454;BME280;22478;51.740;-1.314;2022-12-07T11:38:28;100961.79;;;0.27;100.00
36454;BME280;22478;51.740;-1.314;2022-12-07T11:41:02;100959.00;;;-2.47;100.00
36454;BME280;22478;51.740;-1.314;2022-12-07T11:43:34;100952.82;;;0.33;100.00
36454;BME280;22478;51.740;-1.314;2022-12-07T11:46:05;100944.38;;;1.09;100.00
36454;BME280;22478;51.740;-1.314;2022-12-07T11:48:40;100942.08;;;0.57;100.00
36454;BME280;22478;51.740;-1.314;2022-12-07T11:51:10;100942.68;;;-0.06;100.00
36454;BME280;22478;51.740;-1.314;2022-12-07T11:53:41;100933.42;;;0.43;100.00
36454;BME280;22478;51.740;-1.314;2022-12-07T11:56:12;100937.57;;;-1.81;100.00
36454;BME280;22478;51.740;-1.314;2022-12-07T11:58:49;100932.20;;;-0.48;100.00
36454;BME280;22478;51.740;-1.314;2022-12-07T11:58:55;100931.25;;;0.55;100.00
36454;BME280;22478;51.740;-1.314;2022-12-07T12:01:32;100920.21;;;1.25;100.00
36454;BME280;22478;51.740;-1.314;2022-12-07T12:04:07;100922.75;;;-1.61;100.00
36454;BME280;22478;51.740;-1.314;2022-12-07T12:06:40;100913.21;;;1.23;100.00
36454;BME280;22478;51.740;-1.314;2022-12-07T12:09:13;100905.94;;;2.67;100.00
36454;BME280;22478;51.740;-1.314;2022-12-07T12:11:54;100902.74;;;1.27;100.00
36454;BME280;22478;51.740;-1.314;2022-12-07T12:14:36;100900.37;;;1.21;100.00
36454;BME280;22478;51.740;-1.314;2022-12-07T12:17:28;100892.20;;;2.89;100.00
36454;BME280;22478;51.740;-1.314;2022-12-07T12:20:03;100887.12;;;0.81;100.00
36454;BME280;22478;51.740;-1.314;2022-12-07T12:22:36;100883.39;;;2.98;98.71
36454;BME280;22478;51.740;-1.314;2022-12-07T12:25:06;100891.48;;;-0.07;100.00
36454;BME280;22478;51.740;-1.314;2022-12-07T12:27:39;100888.84;;;-0.60;100.00
36454;BME280;22478;51.740;-1.314;2022-12-07T12:30:25;100875.99;;;2.28;100.00
36454;BME280;22478;51.740;-1.314;2022-12-07T12:33:02;100873.31;;;3.01;100.00
36454;BME280;22478;51.740;-1.314;2022-12-07T12:35:33;100882.84;;;-0.92;100.00
36454;BME280;22478;51.740;-1.314;2022-12-07T12:38:33;100886.55;;;-2.02;100.00
36454;BME280;22478;51.740;-1.314;2022-12-07T12:41:53;100877.40;;;-0.29;100.00
36454;BME280;22478;51.740;-1.314;2022-12-07T12:44:40;100878.69;;;-0.39;100.00
36454;BME280;22478;51.740;-1.314;2022-12-07T12:47:41;100874.15;;;-1.00;100.00
36454;BME280;22478;51.740;-1.314;2022-12-07T12:50:19;100863.62;;;-0.25;100.00